This is the latest recevied weather packets stored in our database for station/object JH1LWU-13. If no packets are shown the sender has not sent any weather packets the latest 10 day(s).
| Time | Temp. | Humidity | Pressure | Rain* | Wind** | Luminosity | Snow |
|---|---|---|---|---|---|---|---|
| 1787525015 | 29.44° C | 65% | 1011 hPa | - | - | - | - |
| 1787523214 | 27.78° C | 71% | 1010 hPa | - | - | - | - |
| 1787521413 | 28.33° C | 70% | 1011 hPa | - | - | - | - |
| 1787519612 | 26.67° C | 74% | 1010 hPa | - | - | - | - |
| 1787517811 | 25° C | 78% | 1011 hPa | - | - | - | - |
| 1787516010 | 25° C | 77% | 1008 hPa | - | - | - | - |
| 1787514209 | 25° C | 79% | 1010 hPa | - | - | - | - |
| 1787512408 | 24.44° C | 79% | 1012 hPa | - | - | - | - |
| 1787510607 | 25° C | 77% | 1009 hPa | - | - | - | - |
| 1787508806 | 25° C | 77% | 1009 hPa | - | - | - | - |
| 1787507005 | 25.56° C | 76% | 1010 hPa | - | - | - | - |
| 1787505204 | 25.56° C | 76% | 1012 hPa | - | - | - | - |
| 1787503403 | 25.56° C | 76% | 1012 hPa | - | - | - | - |
| 1787501602 | 25.56° C | 76% | 1012 hPa | - | - | - | - |
| 1787499801 | 26.11° C | 76% | 1011 hPa | - | - | - | - |
| 1787498000 | 26.11° C | 75% | 1012 hPa | - | - | - | - |
| 1787496199 | 26.11° C | 74% | 1012 hPa | - | - | - | - |
| 1787494398 | 27.22° C | 70% | 1012 hPa | - | - | - | - |
| 1787492597 | 27.78° C | 70% | 1013 hPa | - | - | - | - |
| 1787490796 | 30.56° C | 61% | 1012 hPa | - | - | - | - |
| 1787488995 | 26.11° C | 75% | 1012 hPa | - | - | - | - |
| 1787487194 | 26.11° C | 74% | 1012 hPa | - | - | - | - |
| 1787485393 | 26.67° C | 72% | 1013 hPa | - | - | - | - |
| 1787483592 | 26.67° C | 71% | 1013 hPa | - | - | - | - |
| 1787481791 | 27.22° C | 69% | 1012 hPa | - | - | - | - |
* Rain since midnight (hover to see other rain measurements)
** Current wind speed in m/s (hover to see current wind gust speed)